sensor_id;sensor_type;location;lat;lon;timestamp;P1;durP1;ratioP1;P2;durP2;ratioP2
3547;SDS011;1788;49.400;11.092;2023-01-26T00:01:53;26.40;;;11.47;;
3547;SDS011;1788;49.400;11.092;2023-01-26T00:04:20;25.63;;;9.63;;
3547;SDS011;1788;49.400;11.092;2023-01-26T00:06:47;17.57;;;8.47;;
3547;SDS011;1788;49.400;11.092;2023-01-26T00:09:13;21.63;;;10.27;;
3547;SDS011;1788;49.400;11.092;2023-01-26T00:11:40;24.47;;;11.27;;
3547;SDS011;1788;49.400;11.092;2023-01-26T00:14:07;24.00;;;9.57;;
3547;SDS011;1788;49.400;11.092;2023-01-26T00:16:34;20.07;;;11.13;;
3547;SDS011;1788;49.400;11.092;2023-01-26T00:21:28;25.43;;;10.80;;
3547;SDS011;1788;49.400;11.092;2023-01-26T00:23:56;25.60;;;10.83;;
3547;SDS011;1788;49.400;11.092;2023-01-26T00:26:23;28.80;;;10.57;;
3547;SDS011;1788;49.400;11.092;2023-01-26T00:28:48;20.63;;;9.97;;
3547;SDS011;1788;49.400;11.092;2023-01-26T00:31:16;21.73;;;10.20;;
3547;SDS011;1788;49.400;11.092;2023-01-26T00:33:42;30.87;;;12.80;;
3547;SDS011;1788;49.400;11.092;2023-01-26T00:36:09;23.67;;;10.97;;
3547;SDS011;1788;49.400;11.092;2023-01-26T00:38:36;24.13;;;11.67;;
3547;SDS011;1788;49.400;11.092;2023-01-26T00:41:03;23.13;;;11.03;;
3547;SDS011;1788;49.400;11.092;2023-01-26T00:43:30;25.73;;;11.10;;
3547;SDS011;1788;49.400;11.092;2023-01-26T00:45:57;27.00;;;12.10;;
3547;SDS011;1788;49.400;11.092;2023-01-26T00:48:24;21.37;;;11.43;;
3547;SDS011;1788;49.400;11.092;2023-01-26T00:50:51;26.80;;;10.73;;
3547;SDS011;1788;49.400;11.092;2023-01-26T00:53:17;26.60;;;12.07;;
3547;SDS011;1788;49.400;11.092;2023-01-26T00:55:43;22.90;;;11.20;;
3547;SDS011;1788;49.400;11.092;2023-01-26T00:58:11;23.93;;;10.97;;
3547;SDS011;1788;49.400;11.092;2023-01-26T01:00:38;27.00;;;12.00;;
3547;SDS011;1788;49.400;11.092;2023-01-26T01:03:04;28.40;;;11.70;;
3547;SDS011;1788;49.400;11.092;2023-01-26T01:05:31;21.23;;;10.93;;
3547;SDS011;1788;49.400;11.092;2023-01-26T01:07:57;29.43;;;12.27;;
3547;SDS011;1788;49.400;11.092;2023-01-26T01:10:24;28.10;;;11.40;;
3547;SDS011;1788;49.400;11.092;2023-01-26T01:12:51;23.20;;;11.03;;
3547;SDS011;1788;49.400;11.092;2023-01-26T01:15:18;22.40;;;10.93;;
3547;SDS011;1788;49.400;11.092;2023-01-26T01:17:44;20.87;;;9.47;;
3547;SDS011;1788;49.400;11.092;2023-01-26T01:20:11;23.80;;;10.23;;
3547;SDS011;1788;49.400;11.092;2023-01-26T01:22:38;27.73;;;11.43;;
3547;SDS011;1788;49.400;11.092;2023-01-26T01:25:05;23.13;;;10.33;;
3547;SDS011;1788;49.400;11.092;2023-01-26T01:27:32;24.63;;;10.63;;
3547;SDS011;1788;49.400;11.092;2023-01-26T01:29:59;25.73;;;11.23;;
3547;SDS011;1788;49.400;11.092;2023-01-26T01:32:26;26.50;;;11.57;;
3547;SDS011;1788;49.400;11.092;2023-01-26T01:34:53;25.00;;;11.70;;
3547;SDS011;1788;49.400;11.092;2023-01-26T01:37:20;25.43;;;11.00;;
3547;SDS011;1788;49.400;11.092;2023-01-26T01:39:47;23.70;;;10.57;;
3547;SDS011;1788;49.400;11.092;2023-01-26T01:42:13;25.60;;;10.77;;
3547;SDS011;1788;49.400;11.092;2023-01-26T01:44:41;26.40;;;10.57;;
3547;SDS011;1788;49.400;11.092;2023-01-26T01:47:09;25.93;;;10.80;;
3547;SDS011;1788;49.400;11.092;2023-01-26T01:49:35;33.83;;;11.67;;
3547;SDS011;1788;49.400;11.092;2023-01-26T01:54:28;25.53;;;11.53;;
3547;SDS011;1788;49.400;11.092;2023-01-26T01:56:54;24.23;;;10.37;;
3547;SDS011;1788;49.400;11.092;2023-01-26T01:59:21;24.63;;;10.83;;
3547;SDS011;1788;49.400;11.092;2023-01-26T02:01:48;28.57;;;10.90;;
3547;SDS011;1788;49.400;11.092;2023-01-26T02:04:15;27.43;;;10.90;;
3547;SDS011;1788;49.400;11.092;2023-01-26T02:06:45;22.80;;;9.60;;
3547;SDS011;1788;49.400;11.092;2023-01-26T02:09:08;25.40;;;10.50;;
3547;SDS011;1788;49.400;11.092;2023-01-26T02:14:02;26.63;;;11.27;;
3547;SDS011;1788;49.400;11.092;2023-01-26T02:16:28;29.10;;;12.83;;
3547;SDS011;1788;49.400;11.092;2023-01-26T02:18:54;24.40;;;10.83;;
3547;SDS011;1788;49.400;11.092;2023-01-26T02:21:21;26.93;;;11.23;;
3547;SDS011;1788;49.400;11.092;2023-01-26T02:28:42;23.07;;;10.30;;
3547;SDS011;1788;49.400;11.092;2023-01-26T02:31:09;23.27;;;9.80;;
3547;SDS011;1788;49.400;11.092;2023-01-26T02:33:36;22.83;;;10.43;;
3547;SDS011;1788;49.400;11.092;2023-01-26T02:36:02;20.10;;;8.83;;
3547;SDS011;1788;49.400;11.092;2023-01-26T02:40:57;19.20;;;9.53;;
3547;SDS011;1788;49.400;11.092;2023-01-26T02:43:22;17.83;;;8.93;;
3547;SDS011;1788;49.400;11.092;2023-01-26T02:45:49;22.27;;;8.53;;
3547;SDS011;1788;49.400;11.092;2023-01-26T02:48:15;20.13;;;9.30;;
3547;SDS011;1788;49.400;11.092;2023-01-26T02:50:42;21.10;;;9.63;;
3547;SDS011;1788;49.400;11.092;2023-01-26T02:53:08;20.53;;;9.93;;
3547;SDS011;1788;49.400;11.092;2023-01-26T02:55:36;21.63;;;9.50;;
3547;SDS011;1788;49.400;11.092;2023-01-26T02:58:03;20.90;;;9.13;;
3547;SDS011;1788;49.400;11.092;2023-01-26T03:00:31;21.70;;;9.67;;
3547;SDS011;1788;49.400;11.092;2023-01-26T03:02:57;19.40;;;8.93;;
3547;SDS011;1788;49.400;11.092;2023-01-26T03:05:23;19.50;;;8.90;;
3547;SDS011;1788;49.400;11.092;2023-01-26T03:07:50;21.17;;;10.07;;
3547;SDS011;1788;49.400;11.092;2023-01-26T03:10:16;20.17;;;8.93;;
3547;SDS011;1788;49.400;11.092;2023-01-26T03:12:43;19.47;;;9.40;;
3547;SDS011;1788;49.400;11.092;2023-01-26T03:15:09;16.63;;;8.13;;
3547;SDS011;1788;49.400;11.092;2023-01-26T03:17:36;22.60;;;9.60;;
3547;SDS011;1788;49.400;11.092;2023-01-26T03:20:03;18.97;;;8.60;;
3547;SDS011;1788;49.400;11.092;2023-01-26T03:22:29;18.20;;;8.00;;
3547;SDS011;1788;49.400;11.092;2023-01-26T03:24:57;18.80;;;8.47;;
3547;SDS011;1788;49.400;11.092;2023-01-26T03:27:23;17.80;;;9.87;;
3547;SDS011;1788;49.400;11.092;2023-01-26T03:29:50;22.80;;;9.33;;
3547;SDS011;1788;49.400;11.092;2023-01-26T03:32:17;14.87;;;8.07;;
3547;SDS011;1788;49.400;11.092;2023-01-26T03:34:44;18.80;;;9.57;;
3547;SDS011;1788;49.400;11.092;2023-01-26T03:37:11;24.90;;;9.47;;
3547;SDS011;1788;49.400;11.092;2023-01-26T03:39:38;22.87;;;9.40;;
3547;SDS011;1788;49.400;11.092;2023-01-26T03:42:05;24.30;;;9.33;;
3547;SDS011;1788;49.400;11.092;2023-01-26T03:44:32;19.33;;;8.57;;
3547;SDS011;1788;49.400;11.092;2023-01-26T03:46:59;19.43;;;10.07;;
3547;SDS011;1788;49.400;11.092;2023-01-26T03:49:26;19.13;;;9.20;;
3547;SDS011;1788;49.400;11.092;2023-01-26T03:51:52;28.40;;;10.73;;
3547;SDS011;1788;49.400;11.092;2023-01-26T03:54:19;22.77;;;9.90;;
3547;SDS011;1788;49.400;11.092;2023-01-26T03:56:46;20.97;;;9.70;;
3547;SDS011;1788;49.400;11.092;2023-01-26T03:59:12;24.30;;;8.93;;
3547;SDS011;1788;49.400;11.092;2023-01-26T04:01:41;17.97;;;9.03;;
3547;SDS011;1788;49.400;11.092;2023-01-26T04:04:06;22.97;;;9.57;;
3547;SDS011;1788;49.400;11.092;2023-01-26T04:06:34;23.23;;;9.90;;
3547;SDS011;1788;49.400;11.092;2023-01-26T04:09:00;31.30;;;11.47;;
3547;SDS011;1788;49.400;11.092;2023-01-26T04:11:27;26.03;;;9.87;;
3547;SDS011;1788;49.400;11.092;2023-01-26T04:13:53;21.37;;;9.87;;
3547;SDS011;1788;49.400;11.092;2023-01-26T04:16:20;25.73;;;11.50;;
3547;SDS011;1788;49.400;11.092;2023-01-26T04:18:47;24.50;;;11.13;;
3547;SDS011;1788;49.400;11.092;2023-01-26T04:21:14;29.40;;;10.60;;
3547;SDS011;1788;49.400;11.092;2023-01-26T04:23:41;27.87;;;10.17;;
3547;SDS011;1788;49.400;11.092;2023-01-26T04:26:11;28.13;;;12.60;;
3547;SDS011;1788;49.400;11.092;2023-01-26T04:28:37;23.63;;;9.87;;
3547;SDS011;1788;49.400;11.092;2023-01-26T04:31:04;25.60;;;10.50;;
3547;SDS011;1788;49.400;11.092;2023-01-26T04:33:30;25.17;;;11.97;;
3547;SDS011;1788;49.400;11.092;2023-01-26T04:36:01;25.23;;;10.00;;
3547;SDS011;1788;49.400;11.092;2023-01-26T04:38:24;29.50;;;12.17;;
3547;SDS011;1788;49.400;11.092;2023-01-26T04:43:17;29.83;;;12.33;;
3547;SDS011;1788;49.400;11.092;2023-01-26T04:45:43;28.57;;;11.23;;
3547;SDS011;1788;49.400;11.092;2023-01-26T04:48:10;23.93;;;11.27;;
3547;SDS011;1788;49.400;11.092;2023-01-26T04:50:37;30.77;;;12.30;;
3547;SDS011;1788;49.400;11.092;2023-01-26T04:53:04;26.90;;;11.80;;
3547;SDS011;1788;49.400;11.092;2023-01-26T04:55:31;26.07;;;12.23;;
3547;SDS011;1788;49.400;11.092;2023-01-26T04:57:58;26.97;;;10.90;;
3547;SDS011;1788;49.400;11.092;2023-01-26T05:00:25;27.83;;;11.60;;
3547;SDS011;1788;49.400;11.092;2023-01-26T05:02:51;23.13;;;10.13;;
3547;SDS011;1788;49.400;11.092;2023-01-26T05:05:18;27.33;;;10.90;;
3547;SDS011;1788;49.400;11.092;2023-01-26T05:07:45;23.30;;;10.27;;
3547;SDS011;1788;49.400;11.092;2023-01-26T05:10:12;27.93;;;11.50;;
3547;SDS011;1788;49.400;11.092;2023-01-26T05:12:39;25.43;;;9.77;;
3547;SDS011;1788;49.400;11.092;2023-01-26T05:15:06;26.07;;;10.47;;
3547;SDS011;1788;49.400;11.092;2023-01-26T05:17:33;26.47;;;10.87;;
3547;SDS011;1788;49.400;11.092;2023-01-26T05:20:01;27.07;;;10.83;;
3547;SDS011;1788;49.400;11.092;2023-01-26T05:22:27;22.70;;;11.17;;
3547;SDS011;1788;49.400;11.092;2023-01-26T05:24:54;22.37;;;11.37;;
3547;SDS011;1788;49.400;11.092;2023-01-26T05:27:20;34.83;;;13.20;;
3547;SDS011;1788;49.400;11.092;2023-01-26T05:29:48;27.53;;;11.57;;
3547;SDS011;1788;49.400;11.092;2023-01-26T05:32:14;29.30;;;12.80;;
3547;SDS011;1788;49.400;11.092;2023-01-26T05:34:42;23.57;;;9.87;;
3547;SDS011;1788;49.400;11.092;2023-01-26T05:37:08;26.67;;;12.43;;
3547;SDS011;1788;49.400;11.092;2023-01-26T05:39:35;28.20;;;11.10;;
3547;SDS011;1788;49.400;11.092;2023-01-26T05:42:02;25.33;;;10.27;;
3547;SDS011;1788;49.400;11.092;2023-01-26T05:44:28;21.90;;;11.37;;
3547;SDS011;1788;49.400;11.092;2023-01-26T05:46:56;22.50;;;9.87;;
3547;SDS011;1788;49.400;11.092;2023-01-26T05:49:22;25.97;;;11.77;;
3547;SDS011;1788;49.400;11.092;2023-01-26T05:51:50;23.30;;;11.73;;
3547;SDS011;1788;49.400;11.092;2023-01-26T05:54:16;21.17;;;10.27;;
3547;SDS011;1788;49.400;11.092;2023-01-26T05:56:43;24.07;;;11.30;;
3547;SDS011;1788;49.400;11.092;2023-01-26T05:59:09;23.03;;;10.23;;
3547;SDS011;1788;49.400;11.092;2023-01-26T06:01:36;55.53;;;23.73;;
3547;SDS011;1788;49.400;11.092;2023-01-26T06:04:03;87.57;;;36.47;;
3547;SDS011;1788;49.400;11.092;2023-01-26T06:06:29;29.80;;;11.30;;
3547;SDS011;1788;49.400;11.092;2023-01-26T06:08:57;17.23;;;8.97;;
3547;SDS011;1788;49.400;11.092;2023-01-26T06:11:23;28.60;;;16.37;;
3547;SDS011;1788;49.400;11.092;2023-01-26T06:13:51;24.47;;;13.93;;
3547;SDS011;1788;49.400;11.092;2023-01-26T06:16:18;19.37;;;10.57;;
3547;SDS011;1788;49.400;11.092;2023-01-26T06:18:46;25.87;;;12.97;;
3547;SDS011;1788;49.400;11.092;2023-01-26T06:21:12;27.27;;;11.23;;
3547;SDS011;1788;49.400;11.092;2023-01-26T06:23:39;22.17;;;11.13;;
3547;SDS011;1788;49.400;11.092;2023-01-26T06:26:05;34.20;;;15.17;;
3547;SDS011;1788;49.400;11.092;2023-01-26T06:28:32;24.47;;;11.50;;
3547;SDS011;1788;49.400;11.092;2023-01-26T06:31:01;18.70;;;10.03;;
3547;SDS011;1788;49.400;11.092;2023-01-26T06:33:26;23.97;;;9.23;;
3547;SDS011;1788;49.400;11.092;2023-01-26T06:35:53;19.30;;;8.67;;
3547;SDS011;1788;49.400;11.092;2023-01-26T06:38:19;23.80;;;11.17;;
3547;SDS011;1788;49.400;11.092;2023-01-26T06:40:46;22.17;;;9.73;;
3547;SDS011;1788;49.400;11.092;2023-01-26T06:43:13;22.97;;;9.17;;
3547;SDS011;1788;49.400;11.092;2023-01-26T06:45:39;20.67;;;10.50;;
3547;SDS011;1788;49.400;11.092;2023-01-26T06:48:06;27.77;;;11.47;;
3547;SDS011;1788;49.400;11.092;2023-01-26T06:50:33;22.07;;;9.97;;
3547;SDS011;1788;49.400;11.092;2023-01-26T06:53:02;22.67;;;9.37;;
3547;SDS011;1788;49.400;11.092;2023-01-26T06:55:30;19.37;;;8.87;;
3547;SDS011;1788;49.400;11.092;2023-01-26T06:57:53;19.77;;;9.23;;
3547;SDS011;1788;49.400;11.092;2023-01-26T07:00:20;21.70;;;8.80;;
3547;SDS011;1788;49.400;11.092;2023-01-26T07:02:47;22.87;;;8.77;;
3547;SDS011;1788;49.400;11.092;2023-01-26T07:05:14;18.97;;;9.10;;
3547;SDS011;1788;49.400;11.092;2023-01-26T07:07:41;20.17;;;8.47;;
3547;SDS011;1788;49.400;11.092;2023-01-26T07:10:08;23.57;;;9.23;;
3547;SDS011;1788;49.400;11.092;2023-01-26T07:15:01;28.10;;;10.60;;
3547;SDS011;1788;49.400;11.092;2023-01-26T07:17:28;22.53;;;10.07;;
3547;SDS011;1788;49.400;11.092;2023-01-26T07:19:55;23.33;;;9.90;;
3547;SDS011;1788;49.400;11.092;2023-01-26T07:22:21;19.63;;;9.40;;
3547;SDS011;1788;49.400;11.092;2023-01-26T07:24:48;20.63;;;9.27;;
3547;SDS011;1788;49.400;11.092;2023-01-26T07:27:15;22.20;;;9.73;;
3547;SDS011;1788;49.400;11.092;2023-01-26T07:29:41;24.33;;;9.00;;
3547;SDS011;1788;49.400;11.092;2023-01-26T07:32:08;20.77;;;9.17;;
3547;SDS011;1788;49.400;11.092;2023-01-26T07:34:35;21.63;;;9.93;;
3547;SDS011;1788;49.400;11.092;2023-01-26T07:37:02;18.27;;;8.97;;
3547;SDS011;1788;49.400;11.092;2023-01-26T07:39:28;17.93;;;9.80;;
3547;SDS011;1788;49.400;11.092;2023-01-26T07:41:55;24.03;;;11.23;;
3547;SDS011;1788;49.400;11.092;2023-01-26T07:44:22;17.60;;;8.60;;
3547;SDS011;1788;49.400;11.092;2023-01-26T07:46:48;18.17;;;8.20;;
3547;SDS011;1788;49.400;11.092;2023-01-26T07:49:15;19.37;;;8.30;;
3547;SDS011;1788;49.400;11.092;2023-01-26T07:51:42;17.17;;;7.33;;
3547;SDS011;1788;49.400;11.092;2023-01-26T07:54:09;17.00;;;7.90;;
3547;SDS011;1788;49.400;11.092;2023-01-26T07:56:35;20.67;;;9.17;;
3547;SDS011;1788;49.400;11.092;2023-01-26T07:59:02;15.33;;;7.97;;
3547;SDS011;1788;49.400;11.092;2023-01-26T08:01:28;17.30;;;7.83;;
3547;SDS011;1788;49.400;11.092;2023-01-26T08:03:55;18.90;;;8.50;;
3547;SDS011;1788;49.400;11.092;2023-01-26T08:06:22;14.97;;;7.83;;
3547;SDS011;1788;49.400;11.092;2023-01-26T08:08:49;15.83;;;7.07;;
3547;SDS011;1788;49.400;11.092;2023-01-26T08:11:17;15.70;;;7.37;;
3547;SDS011;1788;49.400;11.092;2023-01-26T08:13:43;16.03;;;7.97;;
3547;SDS011;1788;49.400;11.092;2023-01-26T08:16:10;15.37;;;6.93;;
3547;SDS011;1788;49.400;11.092;2023-01-26T08:18:38;16.97;;;7.40;;
3547;SDS011;1788;49.400;11.092;2023-01-26T08:21:04;17.07;;;8.27;;
3547;SDS011;1788;49.400;11.092;2023-01-26T08:23:30;16.27;;;7.93;;
3547;SDS011;1788;49.400;11.092;2023-01-26T08:28:24;14.63;;;8.13;;
3547;SDS011;1788;49.400;11.092;2023-01-26T08:30:51;16.17;;;6.90;;
3547;SDS011;1788;49.400;11.092;2023-01-26T08:33:17;13.37;;;6.87;;
3547;SDS011;1788;49.400;11.092;2023-01-26T08:35:44;12.07;;;6.70;;
3547;SDS011;1788;49.400;11.092;2023-01-26T08:38:11;13.03;;;5.90;;
3547;SDS011;1788;49.400;11.092;2023-01-26T08:40:38;13.17;;;6.57;;
3547;SDS011;1788;49.400;11.092;2023-01-26T08:43:05;13.90;;;6.73;;
3547;SDS011;1788;49.400;11.092;2023-01-26T08:45:31;15.73;;;6.90;;
3547;SDS011;1788;49.400;11.092;2023-01-26T08:47:58;18.23;;;8.47;;
3547;SDS011;1788;49.400;11.092;2023-01-26T08:50:24;14.20;;;6.50;;
3547;SDS011;1788;49.400;11.092;2023-01-26T08:52:53;16.40;;;7.40;;
3547;SDS011;1788;49.400;11.092;2023-01-26T08:55:18;12.33;;;6.30;;
3547;SDS011;1788;49.400;11.092;2023-01-26T08:57:45;16.33;;;7.33;;
3547;SDS011;1788;49.400;11.092;2023-01-26T09:00:12;15.00;;;7.70;;
3547;SDS011;1788;49.400;11.092;2023-01-26T09:02:38;13.50;;;6.70;;
3547;SDS011;1788;49.400;11.092;2023-01-26T09:05:06;14.30;;;6.47;;
3547;SDS011;1788;49.400;11.092;2023-01-26T09:07:32;14.67;;;6.77;;
3547;SDS011;1788;49.400;11.092;2023-01-26T09:10:00;14.20;;;6.57;;
3547;SDS011;1788;49.400;11.092;2023-01-26T09:12:26;13.33;;;6.67;;
3547;SDS011;1788;49.400;11.092;2023-01-26T09:14:53;16.00;;;6.60;;
3547;SDS011;1788;49.400;11.092;2023-01-26T09:17:19;9.50;;;5.90;;
3547;SDS011;1788;49.400;11.092;2023-01-26T09:19:46;12.47;;;5.93;;
3547;SDS011;1788;49.400;11.092;2023-01-26T09:22:13;12.23;;;6.13;;
3547;SDS011;1788;49.400;11.092;2023-01-26T09:24:40;12.27;;;5.93;;
3547;SDS011;1788;49.400;11.092;2023-01-26T09:27:07;10.40;;;5.53;;
3547;SDS011;1788;49.400;11.092;2023-01-26T09:29:33;12.40;;;6.53;;
3547;SDS011;1788;49.400;11.092;2023-01-26T09:32:00;12.87;;;6.47;;
3547;SDS011;1788;49.400;11.092;2023-01-26T09:34:26;16.10;;;7.70;;
3547;SDS011;1788;49.400;11.092;2023-01-26T09:36:53;13.13;;;6.53;;
3547;SDS011;1788;49.400;11.092;2023-01-26T09:39:20;15.67;;;7.97;;
3547;SDS011;1788;49.400;11.092;2023-01-26T09:41:49;14.07;;;7.23;;
3547;SDS011;1788;49.400;11.092;2023-01-26T09:56:27;12.93;;;7.57;;
3547;SDS011;1788;49.400;11.092;2023-01-26T09:58:54;19.87;;;8.67;;
3547;SDS011;1788;49.400;11.092;2023-01-26T10:03:47;17.73;;;8.20;;
3547;SDS011;1788;49.400;11.092;2023-01-26T10:08:40;17.33;;;7.57;;
3547;SDS011;1788;49.400;11.092;2023-01-26T10:11:11;18.13;;;8.40;;
3547;SDS011;1788;49.400;11.092;2023-01-26T10:13:33;18.93;;;9.03;;
3547;SDS011;1788;49.400;11.092;2023-01-26T10:16:00;18.80;;;8.20;;
3547;SDS011;1788;49.400;11.092;2023-01-26T10:18:28;14.63;;;8.20;;
3547;SDS011;1788;49.400;11.092;2023-01-26T10:20:53;18.13;;;8.63;;
3547;SDS011;1788;49.400;11.092;2023-01-26T10:23:21;15.90;;;7.57;;
3547;SDS011;1788;49.400;11.092;2023-01-26T10:25:46;21.70;;;8.27;;
3547;SDS011;1788;49.400;11.092;2023-01-26T10:28:13;15.63;;;8.17;;
3547;SDS011;1788;49.400;11.092;2023-01-26T10:30:40;17.50;;;7.17;;
3547;SDS011;1788;49.400;11.092;2023-01-26T10:35:32;13.87;;;7.87;;
3547;SDS011;1788;49.400;11.092;2023-01-26T10:38:00;19.10;;;8.27;;
3547;SDS011;1788;49.400;11.092;2023-01-26T10:40:26;18.83;;;7.43;;
3547;SDS011;1788;49.400;11.092;2023-01-26T10:42:55;20.93;;;8.57;;
3547;SDS011;1788;49.400;11.092;2023-01-26T10:50:19;19.07;;;8.10;;
3547;SDS011;1788;49.400;11.092;2023-01-26T10:55:09;29.00;;;14.47;;
3547;SDS011;1788;49.400;11.092;2023-01-26T10:57:36;22.30;;;9.90;;
3547;SDS011;1788;49.400;11.092;2023-01-26T11:00:04;20.53;;;9.67;;
3547;SDS011;1788;49.400;11.092;2023-01-26T11:02:29;34.20;;;13.63;;
3547;SDS011;1788;49.400;11.092;2023-01-26T11:09:50;29.73;;;16.47;;
3547;SDS011;1788;49.400;11.092;2023-01-26T11:12:17;27.60;;;13.47;;
3547;SDS011;1788;49.400;11.092;2023-01-26T11:14:46;23.33;;;13.40;;
3547;SDS011;1788;49.400;11.092;2023-01-26T11:22:04;17.77;;;11.40;;
3547;SDS011;1788;49.400;11.092;2023-01-26T11:24:32;21.23;;;10.50;;
3547;SDS011;1788;49.400;11.092;2023-01-26T11:41:40;20.17;;;10.40;;
3547;SDS011;1788;49.400;11.092;2023-01-26T12:01:17;24.17;;;10.70;;
3547;SDS011;1788;49.400;11.092;2023-01-26T12:03:41;26.33;;;10.57;;
3547;SDS011;1788;49.400;11.092;2023-01-26T12:06:06;27.43;;;11.03;;
3547;SDS011;1788;49.400;11.092;2023-01-26T12:11:01;22.87;;;10.47;;
3547;SDS011;1788;49.400;11.092;2023-01-26T12:15:54;22.40;;;10.00;;
3547;SDS011;1788;49.400;11.092;2023-01-26T12:25:43;26.07;;;11.50;;
3547;SDS011;1788;49.400;11.092;2023-01-26T12:33:00;22.33;;;11.17;;
3547;SDS011;1788;49.400;11.092;2023-01-26T12:37:56;27.83;;;10.63;;
3547;SDS011;1788;49.400;11.092;2023-01-26T12:42:49;30.27;;;11.33;;
3547;SDS011;1788;49.400;11.092;2023-01-26T12:45:15;23.70;;;10.17;;
3547;SDS011;1788;49.400;11.092;2023-01-26T12:47:43;25.33;;;9.47;;
3547;SDS011;1788;49.400;11.092;2023-01-26T12:55:03;21.63;;;9.60;;
3547;SDS011;1788;49.400;11.092;2023-01-26T13:00:00;27.50;;;10.63;;
3547;SDS011;1788;49.400;11.092;2023-01-26T13:04:48;19.53;;;8.17;;
3547;SDS011;1788;49.400;11.092;2023-01-26T13:09:49;22.37;;;9.60;;
3547;SDS011;1788;49.400;11.092;2023-01-26T13:12:12;25.80;;;9.60;;
3547;SDS011;1788;49.400;11.092;2023-01-26T13:14:36;23.10;;;9.17;;
3547;SDS011;1788;49.400;11.092;2023-01-26T13:21:55;26.70;;;11.67;;
3547;SDS011;1788;49.400;11.092;2023-01-26T13:31:43;23.03;;;10.27;;
3547;SDS011;1788;49.400;11.092;2023-01-26T13:34:09;30.67;;;11.40;;
3547;SDS011;1788;49.400;11.092;2023-01-26T13:36:37;24.10;;;9.70;;
3547;SDS011;1788;49.400;11.092;2023-01-26T13:41:31;21.40;;;9.10;;
3547;SDS011;1788;49.400;11.092;2023-01-26T13:46:26;27.13;;;12.67;;
3547;SDS011;1788;49.400;11.092;2023-01-26T13:48:52;30.60;;;12.13;;
3547;SDS011;1788;49.400;11.092;2023-01-26T13:51:19;27.50;;;12.23;;
3547;SDS011;1788;49.400;11.092;2023-01-26T13:58:39;21.97;;;9.50;;
3547;SDS011;1788;49.400;11.092;2023-01-26T14:01:10;23.20;;;9.33;;
3547;SDS011;1788;49.400;11.092;2023-01-26T14:03:33;25.70;;;10.43;;
3547;SDS011;1788;49.400;11.092;2023-01-26T14:06:01;21.13;;;9.80;;
3547;SDS011;1788;49.400;11.092;2023-01-26T14:08:26;26.97;;;10.80;;
3547;SDS011;1788;49.400;11.092;2023-01-26T14:10:53;20.67;;;11.00;;
3547;SDS011;1788;49.400;11.092;2023-01-26T14:13:22;26.03;;;10.70;;
3547;SDS011;1788;49.400;11.092;2023-01-26T14:15:54;28.13;;;9.90;;
3547;SDS011;1788;49.400;11.092;2023-01-26T14:18:18;26.17;;;10.53;;
3547;SDS011;1788;49.400;11.092;2023-01-26T14:20:41;26.27;;;11.50;;
3547;SDS011;1788;49.400;11.092;2023-01-26T14:23:10;28.83;;;12.50;;
3547;SDS011;1788;49.400;11.092;2023-01-26T14:25:35;24.20;;;12.13;;
3547;SDS011;1788;49.400;11.092;2023-01-26T14:28:01;28.30;;;12.43;;
3547;SDS011;1788;49.400;11.092;2023-01-26T14:30:29;34.83;;;13.83;;
3547;SDS011;1788;49.400;11.092;2023-01-26T14:32:57;29.67;;;13.67;;
3547;SDS011;1788;49.400;11.092;2023-01-26T14:35:21;28.50;;;12.90;;
3547;SDS011;1788;49.400;11.092;2023-01-26T14:37:49;31.17;;;12.63;;
3547;SDS011;1788;49.400;11.092;2023-01-26T14:42:42;26.70;;;12.07;;
3547;SDS011;1788;49.400;11.092;2023-01-26T14:47:35;32.43;;;13.10;;
3547;SDS011;1788;49.400;11.092;2023-01-26T14:50:03;28.67;;;12.80;;
3547;SDS011;1788;49.400;11.092;2023-01-26T14:52:30;30.27;;;12.93;;
3547;SDS011;1788;49.400;11.092;2023-01-26T14:54:57;30.67;;;12.93;;
3547;SDS011;1788;49.400;11.092;2023-01-26T14:57:23;36.43;;;14.37;;
3547;SDS011;1788;49.400;11.092;2023-01-26T14:59:49;33.23;;;14.03;;
3547;SDS011;1788;49.400;11.092;2023-01-26T15:02:17;31.50;;;13.03;;
3547;SDS011;1788;49.400;11.092;2023-01-26T15:04:45;39.17;;;16.20;;
3547;SDS011;1788;49.400;11.092;2023-01-26T15:09:37;24.80;;;12.03;;
3547;SDS011;1788;49.400;11.092;2023-01-26T15:12:08;29.93;;;12.10;;
3547;SDS011;1788;49.400;11.092;2023-01-26T15:14:32;28.30;;;12.50;;
3547;SDS011;1788;49.400;11.092;2023-01-26T15:16:57;34.93;;;12.87;;
3547;SDS011;1788;49.400;11.092;2023-01-26T15:19:25;32.90;;;12.50;;
3547;SDS011;1788;49.400;11.092;2023-01-26T15:21:51;35.13;;;14.43;;
3547;SDS011;1788;49.400;11.092;2023-01-26T15:24:18;29.53;;;13.47;;
3547;SDS011;1788;49.400;11.092;2023-01-26T15:26:45;39.60;;;15.93;;
3547;SDS011;1788;49.400;11.092;2023-01-26T15:31:39;42.33;;;15.80;;
3547;SDS011;1788;49.400;11.092;2023-01-26T15:34:05;33.13;;;13.27;;
3547;SDS011;1788;49.400;11.092;2023-01-26T15:36:33;30.63;;;13.93;;
3547;SDS011;1788;49.400;11.092;2023-01-26T15:39:00;29.23;;;14.50;;
3547;SDS011;1788;49.400;11.092;2023-01-26T15:41:25;29.67;;;12.97;;
3547;SDS011;1788;49.400;11.092;2023-01-26T15:43:52;32.50;;;14.60;;
3547;SDS011;1788;49.400;11.092;2023-01-26T15:46:18;31.03;;;13.47;;
3547;SDS011;1788;49.400;11.092;2023-01-26T15:48:45;33.10;;;13.93;;
3547;SDS011;1788;49.400;11.092;2023-01-26T15:51:12;37.53;;;14.47;;
3547;SDS011;1788;49.400;11.092;2023-01-26T15:53:38;28.80;;;12.57;;
3547;SDS011;1788;49.400;11.092;2023-01-26T15:56:05;32.27;;;12.93;;
3547;SDS011;1788;49.400;11.092;2023-01-26T15:58:31;28.67;;;12.63;;
3547;SDS011;1788;49.400;11.092;2023-01-26T16:00:58;24.23;;;11.23;;
3547;SDS011;1788;49.400;11.092;2023-01-26T16:03:26;26.10;;;11.43;;
3547;SDS011;1788;49.400;11.092;2023-01-26T16:05:52;27.73;;;12.00;;
3547;SDS011;1788;49.400;11.092;2023-01-26T16:08:19;27.40;;;13.23;;
3547;SDS011;1788;49.400;11.092;2023-01-26T16:10:46;27.93;;;10.93;;
3547;SDS011;1788;49.400;11.092;2023-01-26T16:13:15;31.93;;;12.87;;
3547;SDS011;1788;49.400;11.092;2023-01-26T16:15:42;28.70;;;13.00;;
3547;SDS011;1788;49.400;11.092;2023-01-26T16:18:07;31.73;;;12.17;;
3547;SDS011;1788;49.400;11.092;2023-01-26T16:20:35;29.37;;;12.47;;
3547;SDS011;1788;49.400;11.092;2023-01-26T16:23:01;25.23;;;12.67;;
3547;SDS011;1788;49.400;11.092;2023-01-26T16:25:28;29.23;;;14.30;;
3547;SDS011;1788;49.400;11.092;2023-01-26T16:27:54;31.57;;;13.00;;
3547;SDS011;1788;49.400;11.092;2023-01-26T16:30:21;25.53;;;12.60;;
3547;SDS011;1788;49.400;11.092;2023-01-26T16:32:47;27.10;;;11.90;;
3547;SDS011;1788;49.400;11.092;2023-01-26T16:35:15;26.83;;;13.40;;
3547;SDS011;1788;49.400;11.092;2023-01-26T16:37:41;28.60;;;14.03;;
3547;SDS011;1788;49.400;11.092;2023-01-26T16:40:08;27.93;;;12.30;;
3547;SDS011;1788;49.400;11.092;2023-01-26T16:42:35;27.60;;;11.80;;
3547;SDS011;1788;49.400;11.092;2023-01-26T16:45:01;26.53;;;11.77;;
3547;SDS011;1788;49.400;11.092;2023-01-26T16:47:27;21.20;;;9.53;;
3547;SDS011;1788;49.400;11.092;2023-01-26T16:49:54;22.97;;;10.57;;
3547;SDS011;1788;49.400;11.092;2023-01-26T16:52:21;22.13;;;10.70;;
3547;SDS011;1788;49.400;11.092;2023-01-26T16:54:47;23.43;;;10.47;;
3547;SDS011;1788;49.400;11.092;2023-01-26T16:57:15;23.80;;;11.73;;
3547;SDS011;1788;49.400;11.092;2023-01-26T16:59:41;28.63;;;12.53;;
3547;SDS011;1788;49.400;11.092;2023-01-26T17:02:10;27.63;;;12.53;;
3547;SDS011;1788;49.400;11.092;2023-01-26T17:04:35;28.57;;;13.47;;
3547;SDS011;1788;49.400;11.092;2023-01-26T17:07:02;24.13;;;12.57;;
3547;SDS011;1788;49.400;11.092;2023-01-26T17:09:29;23.63;;;11.63;;
3547;SDS011;1788;49.400;11.092;2023-01-26T17:11:56;28.70;;;12.07;;
3547;SDS011;1788;49.400;11.092;2023-01-26T17:14:23;24.57;;;11.17;;